Time;durP1;ratioP1;P1;durP2;ratioP2;P2;SDS_P1;SDS_P2;PMS_P1;PMS_P2;Temp;Humidity;BMP_temperature;BMP_pressure;BME280_temperature;BME280_humidity;BME280_pressure;Samples;Min_cycle;Max_cycle;Signal;HPM_P1;HPM_P2
2024/01/01 00:00:46;;;;;;;34.27;19.10;;;;;;;;;;5015650;28;20640;-71
2024/01/01 00:03:12;;;;;;;24.80;15.07;;;;;;;;;;5016685;28;20238;-69
2024/01/01 00:05:38;;;;;;;20.83;14.23;;;;;;;;;;5016637;28;20557;-70
2024/01/01 00:08:04;;;;;;;27.17;15.70;;;;;;;;;;5017965;28;20297;-71
2024/01/01 00:10:30;;;;;;;23.90;12.90;;;;;;;;;;5017549;28;20180;-70
2024/01/01 00:12:56;;;;;;;21.33;13.30;;;;;;;;;;5015412;28;20196;-71
2024/01/01 00:15:22;;;;;;;28.20;11.47;;;;;;;;;;5015968;28;20187;-71
2024/01/01 00:17:48;;;;;;;19.37;11.10;;;;;;;;;;5015787;28;20596;-69
2024/01/01 00:20:14;;;;;;;22.10;10.70;;;;;;;;;;5016112;28;20655;-71
2024/01/01 00:22:41;;;;;;;19.10;10.60;;;;;;;;;;5017156;28;20211;-70
2024/01/01 00:25:07;;;;;;;22.80;12.03;;;;;;;;;;5017767;28;20566;-72
2024/01/01 00:27:34;;;;;;;22.80;12.50;;;;;;;;;;5015639;28;20301;-69
2024/01/01 00:30:00;;;;;;;22.97;11.40;;;;;;;;;;5015236;28;20264;-73
2024/01/01 00:32:26;;;;;;;21.00;11.10;;;;;;;;;;5015013;28;20196;-71
2024/01/01 00:34:52;;;;;;;19.37;11.40;;;;;;;;;;5015066;28;20211;-72
2024/01/01 00:37:18;;;;;;;14.63;9.40;;;;;;;;;;5014244;28;20222;-71
2024/01/01 00:39:45;;;;;;;21.80;13.00;;;;;;;;;;5014566;28;20180;-70
2024/01/01 00:42:11;;;;;;;16.53;11.27;;;;;;;;;;5014083;28;20258;-71
2024/01/01 00:44:37;;;;;;;29.97;13.23;;;;;;;;;;5013976;28;20243;-71
2024/01/01 00:47:03;;;;;;;18.63;11.63;;;;;;;;;;5014149;28;20183;-72
2024/01/01 00:49:29;;;;;;;17.43;10.77;;;;;;;;;;5014538;28;20721;-72
2024/01/01 00:51:55;;;;;;;16.30;10.77;;;;;;;;;;5013574;28;20296;-70
2024/01/01 00:54:23;;;;;;;21.93;11.40;;;;;;;;;;5013632;28;20207;-71
2024/01/01 00:56:51;;;;;;;19.33;10.03;;;;;;;;;;5013914;28;20603;-71
2024/01/01 00:59:17;;;;;;;20.93;10.83;;;;;;;;;;5014796;28;20235;-69
2024/01/01 01:01:43;;;;;;;21.20;10.57;;;;;;;;;;5013555;28;20576;-71
2024/01/01 01:04:09;;;;;;;18.33;10.53;;;;;;;;;;5013637;28;20262;-71
2024/01/01 01:06:35;;;;;;;17.30;8.67;;;;;;;;;;5013973;28;20685;-70
2024/01/01 01:09:01;;;;;;;17.97;8.93;;;;;;;;;;5013491;28;20172;-71
2024/01/01 01:11:27;;;;;;;17.27;9.40;;;;;;;;;;5013395;28;20426;-71
2024/01/01 01:13:53;;;;;;;22.33;8.40;;;;;;;;;;5013333;28;20176;-71
2024/01/01 01:16:19;;;;;;;18.90;9.37;;;;;;;;;;5013192;28;20651;-71
2024/01/01 01:18:45;;;;;;;16.33;7.43;;;;;;;;;;5013293;28;20190;-70
2024/01/01 01:21:13;;;;;;;14.33;6.90;;;;;;;;;;5013291;28;20200;-70
2024/01/01 01:23:39;;;;;;;13.13;7.43;;;;;;;;;;5014518;28;20204;-71
2024/01/01 01:26:05;;;;;;;13.83;6.40;;;;;;;;;;5013111;28;20234;-70
2024/01/01 01:28:31;;;;;;;10.83;5.07;;;;;;;;;;5013110;28;20187;-71
2024/01/01 01:30:57;;;;;;;14.07;5.97;;;;;;;;;;5014125;28;20615;-68
2024/01/01 01:33:23;;;;;;;10.07;5.60;;;;;;;;;;5014001;28;20184;-69
2024/01/01 01:35:49;;;;;;;9.67;4.60;;;;;;;;;;5014348;28;20187;-70
2024/01/01 01:38:15;;;;;;;7.77;4.00;;;;;;;;;;5012983;28;20245;-70
2024/01/01 01:40:41;;;;;;;10.90;4.37;;;;;;;;;;5014201;28;20192;-71
2024/01/01 01:43:23;;;;;;;10.17;3.50;;;;;;;;;;5014338;28;20192;-69
2024/01/01 01:45:50;;;;;;;10.50;3.67;;;;;;;;;;5015483;28;20163;-69
2024/01/01 01:48:17;;;;;;;12.07;3.60;;;;;;;;;;5014820;28;20180;-70
2024/01/01 01:50:45;;;;;;;12.57;3.97;;;;;;;;;;5012683;28;20187;-71
2024/01/01 01:53:12;;;;;;;8.93;3.60;;;;;;;;;;5012682;28;20180;-68
2024/01/01 01:55:38;;;;;;;11.50;4.43;;;;;;;;;;5014135;28;20712;-72
2024/01/01 01:58:04;;;;;;;16.20;5.37;;;;;;;;;;5013957;28;20533;-71
2024/01/01 02:00:30;;;;;;;11.80;4.00;;;;;;;;;;5014732;28;20215;-70
2024/01/01 02:02:57;;;;;;;14.43;4.00;;;;;;;;;;5014572;28;20699;-71
2024/01/01 02:05:23;;;;;;;13.20;3.70;;;;;;;;;;5014654;28;20179;-71
2024/01/01 02:07:49;;;;;;;15.03;4.50;;;;;;;;;;5014733;28;20180;-71
2024/01/01 02:10:15;;;;;;;13.73;4.13;;;;;;;;;;5015171;28;20175;-71
2024/01/01 02:12:45;;;;;;;19.37;4.97;;;;;;;;;;5015134;28;20554;-72
2024/01/01 02:15:11;;;;;;;10.23;4.27;;;;;;;;;;5016057;28;20191;-71
2024/01/01 02:17:37;;;;;;;8.07;3.87;;;;;;;;;;5015850;28;20202;-71
2024/01/01 02:20:05;;;;;;;12.90;4.50;;;;;;;;;;5016661;28;20631;-69
2024/01/01 02:22:53;;;;;;;6.37;3.70;;;;;;;;;;5016357;28;20214;-71
2024/01/01 02:25:18;;;;;;;12.23;3.73;;;;;;;;;;5016258;28;20266;-70
2024/01/01 02:27:44;;;;;;;9.33;3.33;;;;;;;;;;5014266;28;20275;-72
2024/01/01 02:30:11;;;;;;;7.17;2.77;;;;;;;;;;5015501;28;20180;-71
2024/01/01 02:32:39;;;;;;;10.53;2.57;;;;;;;;;;5015641;28;20196;-72
2024/01/01 02:35:08;;;;;;;8.53;2.87;;;;;;;;;;5015382;28;20179;-71
2024/01/01 02:37:34;;;;;;;11.57;3.07;;;;;;;;;;5015097;28;20175;-72
2024/01/01 02:40:01;;;;;;;9.33;3.07;;;;;;;;;;5017196;28;20191;-71
2024/01/01 02:42:27;;;;;;;12.30;2.97;;;;;;;;;;5016460;28;20659;-71
2024/01/01 02:44:53;;;;;;;14.23;4.33;;;;;;;;;;5015955;28;20196;-70
2024/01/01 02:47:19;;;;;;;7.70;3.13;;;;;;;;;;5016078;28;20180;-71
2024/01/01 02:49:45;;;;;;;10.43;3.57;;;;;;;;;;5015481;28;20646;-71
2024/01/01 02:52:11;;;;;;;11.10;3.40;;;;;;;;;;5016078;28;20196;-71
2024/01/01 02:54:37;;;;;;;14.67;4.13;;;;;;;;;;5015419;28;20195;-71
2024/01/01 02:57:03;;;;;;;18.13;5.23;;;;;;;;;;5015368;28;20270;-70
2024/01/01 02:59:29;;;;;;;16.40;5.50;;;;;;;;;;5015007;28;20191;-72
2024/01/01 03:01:55;;;;;;;12.27;6.10;;;;;;;;;;5015088;28;20212;-71
2024/01/01 03:04:21;;;;;;;15.23;6.57;;;;;;;;;;5015075;28;20207;-71
2024/01/01 03:06:47;;;;;;;14.00;6.50;;;;;;;;;;5015016;28;20517;-71
2024/01/01 03:09:13;;;;;;;9.87;5.93;;;;;;;;;;5015086;28;20187;-70
2024/01/01 03:11:40;;;;;;;18.00;6.97;;;;;;;;;;5013922;28;20206;-72
2024/01/01 03:14:06;;;;;;;21.80;7.27;;;;;;;;;;5013586;28;20180;-70
2024/01/01 03:16:32;;;;;;;22.90;6.40;;;;;;;;;;5017187;28;20239;-70
2024/01/01 03:18:58;;;;;;;12.97;5.60;;;;;;;;;;5019277;28;20179;-71
2024/01/01 03:21:24;;;;;;;14.33;5.20;;;;;;;;;;5019178;28;20195;-69
2024/01/01 03:23:50;;;;;;;12.17;5.50;;;;;;;;;;5019923;28;20709;-70
2024/01/01 03:26:17;;;;;;;15.90;5.30;;;;;;;;;;5019329;28;20180;-70
2024/01/01 03:28:43;;;;;;;16.17;5.23;;;;;;;;;;5019167;28;20617;-69
2024/01/01 03:31:10;;;;;;;9.13;4.37;;;;;;;;;;5018898;28;20243;-70
2024/01/01 03:33:36;;;;;;;13.87;4.57;;;;;;;;;;5019718;28;20562;-70
2024/01/01 03:36:02;;;;;;;16.13;4.90;;;;;;;;;;5018119;28;20191;-69
2024/01/01 03:38:28;;;;;;;11.57;4.07;;;;;;;;;;5015838;28;20188;-70
2024/01/01 03:40:54;;;;;;;15.83;4.13;;;;;;;;;;5017243;28;20180;-70
2024/01/01 03:43:20;;;;;;;12.07;3.70;;;;;;;;;;5017463;28;20531;-69
2024/01/01 03:45:46;;;;;;;13.33;4.47;;;;;;;;;;5017200;28;20268;-70
2024/01/01 03:48:12;;;;;;;22.77;4.83;;;;;;;;;;5016947;28;20188;-70
2024/01/01 03:50:38;;;;;;;12.60;4.47;;;;;;;;;;5018208;28;20246;-70
2024/01/01 03:53:04;;;;;;;14.17;3.83;;;;;;;;;;5018385;28;20183;-69
2024/01/01 03:55:30;;;;;;;15.00;4.77;;;;;;;;;;5018791;28;20178;-70
2024/01/01 03:57:56;;;;;;;18.10;4.67;;;;;;;;;;5018421;28;20195;-69
2024/01/01 04:00:23;;;;;;;13.93;3.73;;;;;;;;;;5018264;28;20550;-70
2024/01/01 04:02:49;;;;;;;14.70;3.80;;;;;;;;;;5018714;28;20219;-69
2024/01/01 04:05:15;;;;;;;13.53;3.97;;;;;;;;;;5017259;28;20207;-69
2024/01/01 04:07:41;;;;;;;15.23;3.57;;;;;;;;;;5018902;28;20172;-70
2024/01/01 04:10:08;;;;;;;18.37;4.83;;;;;;;;;;5018360;28;20183;-69
2024/01/01 04:12:34;;;;;;;15.83;3.63;;;;;;;;;;5016887;28;20261;-69
2024/01/01 04:15:01;;;;;;;19.00;4.07;;;;;;;;;;5018797;28;20235;-69
2024/01/01 04:17:27;;;;;;;11.47;3.23;;;;;;;;;;5018595;28;20180;-70
2024/01/01 04:19:53;;;;;;;11.57;3.33;;;;;;;;;;5018423;28;20601;-69
2024/01/01 04:22:19;;;;;;;10.30;2.70;;;;;;;;;;5018126;28;20576;-69
2024/01/01 04:24:45;;;;;;;14.17;3.53;;;;;;;;;;5017650;28;20215;-69
2024/01/01 04:27:11;;;;;;;13.20;3.33;;;;;;;;;;5017854;28;20172;-69
2024/01/01 04:29:37;;;;;;;16.43;3.47;;;;;;;;;;5017797;28;20220;-70
2024/01/01 04:32:03;;;;;;;15.10;2.63;;;;;;;;;;5017774;28;20204;-69
2024/01/01 04:34:29;;;;;;;15.60;3.03;;;;;;;;;;5017856;28;20184;-70
2024/01/01 04:36:55;;;;;;;19.10;3.83;;;;;;;;;;5017848;28;20183;-69
2024/01/01 04:39:21;;;;;;;15.10;3.10;;;;;;;;;;5017419;28;20666;-70
2024/01/01 04:41:47;;;;;;;14.83;3.20;;;;;;;;;;5017046;28;20220;-70
2024/01/01 04:44:13;;;;;;;11.07;2.63;;;;;;;;;;5016963;28;20214;-70
2024/01/01 04:46:39;;;;;;;13.47;2.77;;;;;;;;;;5017444;28;20186;-69
2024/01/01 04:49:05;;;;;;;21.53;3.73;;;;;;;;;;5016953;28;20180;-70
2024/01/01 04:51:31;;;;;;;17.23;3.53;;;;;;;;;;5017266;28;20286;-69
2024/01/01 04:53:57;;;;;;;17.27;3.53;;;;;;;;;;5017201;28;20186;-69
2024/01/01 04:56:23;;;;;;;18.40;3.00;;;;;;;;;;5016016;28;20639;-69
2024/01/01 04:58:49;;;;;;;16.10;3.23;;;;;;;;;;5016597;28;20720;-69
2024/01/01 05:01:15;;;;;;;18.83;3.33;;;;;;;;;;5017509;28;20199;-69
2024/01/01 05:03:41;;;;;;;11.40;3.37;;;;;;;;;;5039402;23;20238;-70
2024/01/01 05:06:07;;;;;;;10.97;2.90;;;;;;;;;;4997972;28;20180;-70
2024/01/01 05:08:33;;;;;;;16.20;4.07;;;;;;;;;;4997861;28;20199;-70
2024/01/01 05:11:03;;;;;;;12.53;3.13;;;;;;;;;;4997603;28;20216;-71
2024/01/01 05:13:29;;;;;;;7.87;2.60;;;;;;;;;;4997611;28;20207;-70
2024/01/01 05:15:55;;;;;;;10.03;2.93;;;;;;;;;;5015619;28;20183;-70
2024/01/01 05:18:21;;;;;;;13.50;3.30;;;;;;;;;;4997836;28;20266;-71
2024/01/01 05:20:47;;;;;;;13.37;3.33;;;;;;;;;;5015587;28;20642;-72
2024/01/01 05:23:12;;;;;;;6.70;2.70;;;;;;;;;;5014951;28;20203;-70
2024/01/01 05:25:38;;;;;;;10.27;2.47;;;;;;;;;;5015031;28;20184;-72
2024/01/01 05:28:07;;;;;;;10.03;3.13;;;;;;;;;;5014879;28;20172;-71
2024/01/01 05:30:33;;;;;;;12.67;3.00;;;;;;;;;;4997338;28;20180;-71
2024/01/01 05:32:59;;;;;;;13.10;3.30;;;;;;;;;;5014861;28;20692;-72
2024/01/01 05:35:25;;;;;;;14.40;3.27;;;;;;;;;;5014797;28;20180;-71
2024/01/01 05:37:51;;;;;;;11.07;3.10;;;;;;;;;;5014360;28;20191;-72
2024/01/01 05:40:17;;;;;;;14.70;3.53;;;;;;;;;;5014316;28;20186;-71
2024/01/01 05:42:43;;;;;;;13.20;3.03;;;;;;;;;;5014761;28;20210;-72
2024/01/01 05:45:09;;;;;;;12.17;2.57;;;;;;;;;;4997093;28;20258;-72
2024/01/01 05:47:35;;;;;;;7.53;2.53;;;;;;;;;;5015081;28;20657;-71
2024/01/01 05:50:01;;;;;;;12.57;2.83;;;;;;;;;;5014542;28;20187;-72
2024/01/01 05:52:27;;;;;;;13.30;2.77;;;;;;;;;;5014501;28;20748;-72
2024/01/01 05:54:53;;;;;;;8.80;3.00;;;;;;;;;;5014493;28;20266;-71
2024/01/01 05:57:19;;;;;;;12.77;3.30;;;;;;;;;;5014505;28;20218;-72
2024/01/01 05:59:45;;;;;;;11.07;2.57;;;;;;;;;;5014607;28;20171;-72
2024/01/01 06:02:11;;;;;;;17.97;3.73;;;;;;;;;;5014361;28;20228;-71
2024/01/01 06:04:37;;;;;;;11.33;2.57;;;;;;;;;;5014480;28;20299;-72
2024/01/01 06:07:03;;;;;;;10.17;3.10;;;;;;;;;;5014301;28;20168;-72
2024/01/01 06:09:29;;;;;;;8.37;2.93;;;;;;;;;;4996688;28;20201;-72
2024/01/01 06:11:55;;;;;;;7.93;3.23;;;;;;;;;;4996477;28;20246;-72
2024/01/01 06:14:21;;;;;;;10.90;2.83;;;;;;;;;;5014229;28;20191;-72
2024/01/01 06:16:47;;;;;;;13.73;3.10;;;;;;;;;;5014254;28;20222;-72
2024/01/01 06:19:13;;;;;;;9.47;2.50;;;;;;;;;;4996745;28;20238;-72
2024/01/01 06:21:39;;;;;;;13.87;3.00;;;;;;;;;;4997030;28;20188;-72
2024/01/01 06:24:06;;;;;;;9.67;2.53;;;;;;;;;;4996819;28;20630;-72
2024/01/01 06:26:32;;;;;;;11.50;3.23;;;;;;;;;;5014628;28;20184;-72
2024/01/01 06:28:58;;;;;;;8.20;2.53;;;;;;;;;;4996613;28;20175;-71
2024/01/01 06:31:24;;;;;;;8.30;2.23;;;;;;;;;;5014964;28;20254;-72
2024/01/01 06:33:50;;;;;;;13.87;3.13;;;;;;;;;;5014282;28;20227;-71
2024/01/01 06:36:16;;;;;;;8.40;2.40;;;;;;;;;;5014536;28;20206;-71
2024/01/01 06:38:42;;;;;;;7.90;2.17;;;;;;;;;;5014178;28;20180;-72
2024/01/01 06:41:08;;;;;;;9.63;2.23;;;;;;;;;;5013781;28;20269;-72
2024/01/01 06:43:34;;;;;;;11.33;3.03;;;;;;;;;;4995962;28;20207;-72
2024/01/01 06:46:00;;;;;;;11.83;2.77;;;;;;;;;;4996042;28;20186;-72
2024/01/01 06:48:26;;;;;;;5.57;1.70;;;;;;;;;;5013855;28;20528;-71
2024/01/01 06:50:52;;;;;;;7.67;2.53;;;;;;;;;;5013681;28;20171;-72
2024/01/01 06:53:18;;;;;;;8.17;2.20;;;;;;;;;;5013941;28;20249;-71
2024/01/01 06:55:44;;;;;;;6.73;2.30;;;;;;;;;;4996083;28;20183;-72
2024/01/01 06:58:10;;;;;;;12.23;2.17;;;;;;;;;;5013652;28;20171;-72
2024/01/01 07:00:36;;;;;;;4.90;2.10;;;;;;;;;;5013929;28;20233;-71
2024/01/01 07:03:03;;;;;;;10.77;2.63;;;;;;;;;;5013859;28;20255;-72
2024/01/01 07:05:29;;;;;;;8.47;2.03;;;;;;;;;;5013646;28;20184;-72
2024/01/01 07:07:55;;;;;;;6.83;1.83;;;;;;;;;;5013720;28;20648;-72
2024/01/01 07:10:22;;;;;;;8.23;3.10;;;;;;;;;;4996164;28;20402;-71
2024/01/01 07:12:48;;;;;;;5.60;2.40;;;;;;;;;;4996078;28;20204;-71
2024/01/01 07:15:13;;;;;;;8.23;2.30;;;;;;;;;;4996010;28;20780;-72
2024/01/01 07:17:40;;;;;;;10.93;1.97;;;;;;;;;;5014149;28;20204;-72
2024/01/01 07:20:06;;;;;;;9.63;3.07;;;;;;;;;;5014489;28;20172;-72
2024/01/01 07:22:32;;;;;;;10.37;3.13;;;;;;;;;;4997099;28;20203;-71
2024/01/01 07:24:58;;;;;;;8.33;2.47;;;;;;;;;;5015430;28;20282;-72
2024/01/01 07:27:24;;;;;;;7.93;2.27;;;;;;;;;;4997788;28;20184;-73
2024/01/01 07:29:50;;;;;;;7.47;2.57;;;;;;;;;;5023471;28;20694;-72
2024/01/01 07:32:16;;;;;;;8.97;2.67;;;;;;;;;;5017750;28;20196;-72
2024/01/01 07:34:42;;;;;;;6.60;2.00;;;;;;;;;;5013532;28;20183;-72
2024/01/01 07:37:08;;;;;;;4.03;1.87;;;;;;;;;;5029283;28;20203;-72
2024/01/01 07:39:34;;;;;;;5.20;1.93;;;;;;;;;;5023761;28;20255;-72
2024/01/01 07:42:01;;;;;;;7.50;2.07;;;;;;;;;;4996178;28;20654;-72
2024/01/01 07:44:27;;;;;;;8.73;2.50;;;;;;;;;;5014175;28;20203;-72
2024/01/01 07:46:53;;;;;;;5.70;1.70;;;;;;;;;;5013868;28;20529;-72
2024/01/01 07:49:19;;;;;;;11.77;2.53;;;;;;;;;;5014050;28;20172;-72
2024/01/01 07:51:45;;;;;;;14.47;3.33;;;;;;;;;;4995830;28;20175;-72
2024/01/01 07:54:11;;;;;;;5.23;2.03;;;;;;;;;;4996018;28;20203;-72
2024/01/01 07:56:43;;;;;;;8.93;1.90;;;;;;;;;;5013835;28;20183;-72
2024/01/01 07:59:09;;;;;;;4.50;1.93;;;;;;;;;;4996182;28;20279;-72
2024/01/01 08:01:35;;;;;;;8.13;2.57;;;;;;;;;;5014611;28;20579;-71
2024/01/01 08:04:01;;;;;;;7.53;2.03;;;;;;;;;;4999403;28;20234;-72
2024/01/01 08:06:27;;;;;;;9.93;2.57;;;;;;;;;;5017241;28;20168;-72
2024/01/01 08:08:52;;;;;;;8.40;1.87;;;;;;;;;;5017640;28;20180;-72
2024/01/01 08:11:19;;;;;;;8.60;2.77;;;;;;;;;;4999300;28;20187;-72
2024/01/01 08:13:45;;;;;;;5.67;2.43;;;;;;;;;;5017172;28;20200;-73
2024/01/01 08:16:12;;;;;;;7.23;2.17;;;;;;;;;;4998891;28;20219;-72
2024/01/01 08:18:38;;;;;;;6.13;1.80;;;;;;;;;;5016880;28;20259;-72
2024/01/01 08:21:04;;;;;;;6.73;2.40;;;;;;;;;;5016433;28;20246;-72
2024/01/01 08:23:31;;;;;;;3.57;1.53;;;;;;;;;;5016881;28;20215;-72
2024/01/01 08:25:57;;;;;;;7.57;1.90;;;;;;;;;;4999180;28;20203;-72
2024/01/01 08:28:23;;;;;;;7.30;2.17;;;;;;;;;;5016485;28;20172;-72
2024/01/01 08:30:49;;;;;;;4.90;1.93;;;;;;;;;;4998703;28;20664;-72
2024/01/01 08:33:16;;;;;;;7.77;2.20;;;;;;;;;;5015906;28;20200;-72
2024/01/01 08:35:42;;;;;;;5.57;2.10;;;;;;;;;;4998409;28;20179;-72
2024/01/01 08:38:08;;;;;;;5.10;1.77;;;;;;;;;;5016192;28;20263;-72
2024/01/01 08:40:35;;;;;;;7.53;2.00;;;;;;;;;;4998839;28;20203;-72
2024/01/01 08:43:01;;;;;;;10.73;2.23;;;;;;;;;;5016759;28;20374;-72
2024/01/01 08:45:27;;;;;;;6.37;1.93;;;;;;;;;;5015801;28;20207;-72
2024/01/01 08:47:53;;;;;;;5.33;1.77;;;;;;;;;;4998019;28;20318;-72
2024/01/01 08:50:19;;;;;;;4.00;1.73;;;;;;;;;;4998273;28;20175;-73
2024/01/01 08:52:45;;;;;;;5.70;1.90;;;;;;;;;;5015977;28;20200;-72
2024/01/01 08:55:11;;;;;;;9.40;2.20;;;;;;;;;;4998376;28;20183;-72
2024/01/01 08:57:38;;;;;;;5.87;1.77;;;;;;;;;;4998040;28;20665;-71
2024/01/01 09:00:04;;;;;;;6.07;1.80;;;;;;;;;;5015464;28;20176;-72
2024/01/01 09:02:30;;;;;;;6.07;2.13;;;;;;;;;;5015217;28;20247;-72
2024/01/01 09:04:56;;;;;;;8.20;2.43;;;;;;;;;;4997566;28;20286;-72
2024/01/01 09:07:23;;;;;;;5.70;1.80;;;;;;;;;;4997671;28;20757;-72
2024/01/01 09:09:49;;;;;;;4.00;2.40;;;;;;;;;;5015176;28;20665;-72
2024/01/01 09:12:15;;;;;;;7.17;2.07;;;;;;;;;;5015197;28;20227;-71
2024/01/01 09:14:41;;;;;;;7.70;2.00;;;;;;;;;;4996611;28;20184;-72
2024/01/01 09:17:07;;;;;;;8.73;2.00;;;;;;;;;;5015226;28;20179;-72
2024/01/01 09:19:34;;;;;;;5.37;1.83;;;;;;;;;;5015549;28;20176;-72
2024/01/01 09:22:00;;;;;;;9.37;2.63;;;;;;;;;;5015337;28;20172;-72
2024/01/01 09:24:26;;;;;;;5.07;1.90;;;;;;;;;;4997801;28;20693;-72
2024/01/01 09:26:52;;;;;;;4.90;2.17;;;;;;;;;;4997725;28;20180;-72
2024/01/01 09:29:18;;;;;;;7.80;2.00;;;;;;;;;;4997380;28;20183;-72
2024/01/01 09:31:44;;;;;;;10.93;2.53;;;;;;;;;;5015180;28;20250;-71
2024/01/01 09:34:10;;;;;;;11.00;2.27;;;;;;;;;;5014784;28;20231;-72
2024/01/01 09:36:37;;;;;;;9.73;2.40;;;;;;;;;;5015053;28;20187;-72
2024/01/01 09:39:03;;;;;;;8.13;2.23;;;;;;;;;;4997354;28;20583;-72
2024/01/01 09:41:30;;;;;;;2.93;1.70;;;;;;;;;;5016017;28;20183;-72
2024/01/01 09:43:56;;;;;;;5.67;1.90;;;;;;;;;;5015952;28;20204;-71
2024/01/01 09:46:23;;;;;;;3.67;2.07;;;;;;;;;;5014612;28;20625;-72
2024/01/01 09:48:49;;;;;;;7.80;2.17;;;;;;;;;;5015016;28;20172;-71
2024/01/01 09:51:15;;;;;;;11.93;2.17;;;;;;;;;;4997159;28;20179;-71
2024/01/01 09:53:45;;;;;;;9.50;2.47;;;;;;;;;;5014703;28;20254;-71
2024/01/01 09:56:11;;;;;;;10.00;2.50;;;;;;;;;;5014966;28;20215;-71
2024/01/01 09:58:43;;;;;;;7.10;2.47;;;;;;;;;;5014644;28;20180;-72
2024/01/01 10:01:10;;;;;;;7.27;2.10;;;;;;;;;;5014640;28;20179;-70
2024/01/01 10:03:36;;;;;;;4.73;1.93;;;;;;;;;;5014292;28;20215;-71
2024/01/01 10:06:09;;;;;;;5.03;1.60;;;;;;;;;;4996711;28;20654;-71
2024/01/01 10:08:35;;;;;;;4.73;1.90;;;;;;;;;;4997063;28;20183;-71
2024/01/01 10:11:20;;;;;;;6.67;1.90;;;;;;;;;;5015165;28;20599;-71
2024/01/01 10:13:49;;;;;;;7.87;2.60;;;;;;;;;;5014603;28;20246;-71
2024/01/01 10:16:29;;;;;;;8.37;2.23;;;;;;;;;;5016414;28;20621;-71
2024/01/01 10:18:56;;;;;;;5.60;2.10;;;;;;;;;;4997463;28;20193;-70
2024/01/01 10:21:29;;;;;;;8.33;2.60;;;;;;;;;;5014707;28;20183;-70
2024/01/01 10:23:59;;;;;;;5.60;2.37;;;;;;;;;;5014283;28;20231;-70
2024/01/01 10:26:25;;;;;;;7.43;2.20;;;;;;;;;;5014276;28;20207;-71
2024/01/01 10:28:51;;;;;;;8.60;1.80;;;;;;;;;;4996574;28;20669;-71
2024/01/01 10:31:17;;;;;;;4.40;2.00;;;;;;;;;;5014221;28;20187;-71
2024/01/01 10:33:48;;;;;;;9.37;2.40;;;;;;;;;;5014342;28;20223;-71
2024/01/01 10:36:16;;;;;;;2.77;1.60;;;;;;;;;;5014531;28;20179;-71
2024/01/01 10:38:43;;;;;;;9.80;2.57;;;;;;;;;;4996962;28;20230;-71
2024/01/01 10:41:10;;;;;;;5.90;1.80;;;;;;;;;;5014398;28;20180;-72
2024/01/01 10:43:36;;;;;;;10.53;2.07;;;;;;;;;;5014553;28;20207;-72
2024/01/01 10:46:03;;;;;;;8.67;2.17;;;;;;;;;;5014123;28;20182;-72
2024/01/01 10:48:30;;;;;;;6.60;2.27;;;;;;;;;;5014152;28;20223;-72
2024/01/01 10:51:17;;;;;;;12.57;3.00;;;;;;;;;;5013938;28;20168;-72
2024/01/01 10:54:05;;;;;;;10.47;3.10;;;;;;;;;;4983978;28;20231;-72
2024/01/01 10:56:48;;;;;;;7.30;2.90;;;;;;;;;;4996562;28;20761;-72
2024/01/01 10:59:20;;;;;;;7.67;2.63;;;;;;;;;;5014576;28;20167;-72
2024/01/01 11:01:51;;;;;;;5.77;2.33;;;;;;;;;;5014245;28;20198;-72
2024/01/01 11:04:20;;;;;;;7.60;2.87;;;;;;;;;;5013827;28;20208;-72
2024/01/01 11:06:46;;;;;;;8.70;3.67;;;;;;;;;;5016555;28;20246;-72
2024/01/01 11:09:22;;;;;;;5.73;2.23;;;;;;;;;;5013868;28;20176;-71
2024/01/01 11:11:48;;;;;;;8.43;2.17;;;;;;;;;;4996178;28;20183;-71
2024/01/01 11:14:23;;;;;;;13.13;5.60;;;;;;;;;;5013755;28;20280;-71
2024/01/01 11:16:50;;;;;;;8.17;3.33;;;;;;;;;;5020510;28;20183;-71
2024/01/01 11:19:35;;;;;;;8.47;4.20;;;;;;;;;;5013957;28;20180;-71
2024/01/01 11:22:20;;;;;;;14.30;5.20;;;;;;;;;;5013831;28;20179;-71
2024/01/01 11:24:50;;;;;;;10.90;4.00;;;;;;;;;;4997765;28;20261;-72
2024/01/01 11:27:31;;;;;;;6.33;2.77;;;;;;;;;;4996002;28;20267;-72
2024/01/01 11:30:04;;;;;;;12.03;4.77;;;;;;;;;;5016279;28;20180;-72
2024/01/01 11:32:31;;;;;;;13.73;3.40;;;;;;;;;;5016268;28;20678;-72
2024/01/01 11:35:03;;;;;;;9.07;3.23;;;;;;;;;;5017396;28;20187;-72
2024/01/01 11:37:29;;;;;;;7.30;2.90;;;;;;;;;;5017335;28;20310;-73
2024/01/01 11:40:02;;;;;;;13.70;5.70;;;;;;;;;;5019643;28;20229;-73
2024/01/01 11:42:28;;;;;;;13.77;4.67;;;;;;;;;;5000114;28;20199;-71
2024/01/01 11:45:07;;;;;;;12.47;4.10;;;;;;;;;;5017998;28;20204;-71
2024/01/01 11:47:33;;;;;;;10.07;3.40;;;;;;;;;;5017148;28;20179;-71
2024/01/01 11:49:59;;;;;;;10.40;3.60;;;;;;;;;;5017022;28;20258;-72
2024/01/01 11:52:25;;;;;;;11.77;6.37;;;;;;;;;;4999574;28;20331;-72
2024/01/01 11:54:51;;;;;;;9.63;4.60;;;;;;;;;;4999469;28;20188;-72
2024/01/01 11:57:17;;;;;;;11.93;4.23;;;;;;;;;;4999466;28;20199;-71
2024/01/01 11:59:43;;;;;;;17.80;9.03;;;;;;;;;;4999257;28;20176;-71
2024/01/01 12:02:10;;;;;;;9.10;3.37;;;;;;;;;;5016468;28;21500;-72
2024/01/01 12:04:36;;;;;;;16.13;4.13;;;;;;;;;;4998992;28;20206;-72
2024/01/01 12:07:02;;;;;;;10.13;2.77;;;;;;;;;;4999098;28;20184;-72
2024/01/01 12:09:28;;;;;;;11.70;3.60;;;;;;;;;;5017372;28;20179;-72
2024/01/01 12:12:12;;;;;;;11.10;3.57;;;;;;;;;;5017063;28;20646;-72
2024/01/01 12:14:39;;;;;;;12.27;3.13;;;;;;;;;;5059329;23;20230;-69
2024/01/01 12:17:06;;;;;;;6.57;3.00;;;;;;;;;;5056143;28;20174;-69
2024/01/01 12:19:32;;;;;;;9.70;3.27;;;;;;;;;;5054809;28;20213;-69
2024/01/01 12:21:58;;;;;;;8.00;3.37;;;;;;;;;;5055450;28;20249;-70
2024/01/01 12:24:23;;;;;;;9.30;3.50;;;;;;;;;;5055426;28;20206;-70
2024/01/01 12:26:54;;;;;;;12.30;4.40;;;;;;;;;;5055846;28;20181;-70
2024/01/01 12:29:21;;;;;;;8.30;2.83;;;;;;;;;;5055608;28;20245;-70
2024/01/01 12:31:47;;;;;;;7.73;2.93;;;;;;;;;;5037514;28;20185;-70
2024/01/01 12:34:14;;;;;;;9.27;2.80;;;;;;;;;;5055339;28;20199;-71
2024/01/01 12:36:41;;;;;;;12.40;3.70;;;;;;;;;;5037265;28;20191;-70
2024/01/01 12:39:07;;;;;;;16.27;7.10;;;;;;;;;;5037246;28;20205;-71
2024/01/01 12:41:33;;;;;;;9.97;3.53;;;;;;;;;;5037575;28;20649;-69
2024/01/01 12:43:59;;;;;;;9.67;2.80;;;;;;;;;;5037129;28;20608;-68
2024/01/01 12:46:26;;;;;;;10.03;3.67;;;;;;;;;;5037064;28;20214;-68
2024/01/01 12:48:52;;;;;;;12.50;5.57;;;;;;;;;;5054821;28;20174;-70
2024/01/01 12:51:20;;;;;;;8.77;3.73;;;;;;;;;;5055276;28;20178;-69
2024/01/01 12:53:46;;;;;;;5.47;2.50;;;;;;;;;;5055083;28;20222;-69
2024/01/01 12:56:12;;;;;;;14.47;3.20;;;;;;;;;;5055233;28;20236;-70
2024/01/01 12:58:41;;;;;;;11.47;3.50;;;;;;;;;;5055395;28;20182;-69
2024/01/01 13:01:09;;;;;;;10.73;3.37;;;;;;;;;;5054770;28;20262;-69
2024/01/01 13:03:34;;;;;;;10.50;3.27;;;;;;;;;;5054967;28;20218;-70
2024/01/01 13:06:00;;;;;;;15.73;4.00;;;;;;;;;;5054844;28;20599;-70
2024/01/01 13:08:26;;;;;;;11.73;3.40;;;;;;;;;;5055282;28;20178;-70
2024/01/01 13:10:52;;;;;;;12.23;2.97;;;;;;;;;;5037018;28;20179;-70
2024/01/01 13:13:18;;;;;;;7.53;3.47;;;;;;;;;;5055013;28;20210;-71
2024/01/01 13:15:45;;;;;;;13.00;3.47;;;;;;;;;;5036802;28;20182;-70
2024/01/01 13:18:12;;;;;;;9.10;4.00;;;;;;;;;;5054934;28;20177;-70
2024/01/01 13:20:38;;;;;;;14.67;4.17;;;;;;;;;;5054746;28;20654;-69
2024/01/01 13:23:04;;;;;;;14.93;8.13;;;;;;;;;;5054280;28;20178;-70
2024/01/01 13:25:30;;;;;;;13.73;4.20;;;;;;;;;;5036466;28;20202;-70
2024/01/01 13:27:56;;;;;;;15.80;5.60;;;;;;;;;;5054124;28;20174;-70
2024/01/01 13:30:22;;;;;;;15.47;5.20;;;;;;;;;;5054726;28;20248;-71
2024/01/01 13:32:48;;;;;;;6.23;3.00;;;;;;;;;;5054205;28;20178;-70
2024/01/01 13:35:14;;;;;;;12.40;3.93;;;;;;;;;;5054497;28;20669;-69
2024/01/01 13:37:40;;;;;;;14.57;3.27;;;;;;;;;;5036174;28;20182;-70
2024/01/01 13:40:06;;;;;;;12.27;2.67;;;;;;;;;;5055043;28;20547;-70
2024/01/01 13:42:32;;;;;;;16.43;3.30;;;;;;;;;;5053953;28;20190;-71
2024/01/01 13:44:58;;;;;;;15.77;3.93;;;;;;;;;;5054310;28;20202;-72
2024/01/01 13:47:24;;;;;;;15.87;4.07;;;;;;;;;;5055358;28;20233;-71
2024/01/01 13:49:50;;;;;;;13.87;3.20;;;;;;;;;;5054936;28;20178;-71
2024/01/01 13:52:17;;;;;;;11.53;3.43;;;;;;;;;;5054719;28;20185;-69
2024/01/01 13:54:43;;;;;;;12.00;4.37;;;;;;;;;;5054451;28;20198;-70
2024/01/01 13:57:09;;;;;;;18.37;3.53;;;;;;;;;;5055120;28;20258;-69
2024/01/01 13:59:35;;;;;;;15.57;4.73;;;;;;;;;;5054040;28;20182;-69
2024/01/01 14:02:02;;;;;;;13.30;4.23;;;;;;;;;;5053770;28;20198;-71
2024/01/01 14:04:28;;;;;;;13.07;3.63;;;;;;;;;;5053736;28;20233;-70
2024/01/01 14:06:54;;;;;;;16.87;3.60;;;;;;;;;;5054105;28;20179;-70
2024/01/01 14:09:20;;;;;;;16.60;4.37;;;;;;;;;;5053816;28;20547;-70
2024/01/01 14:11:47;;;;;;;16.50;3.93;;;;;;;;;;5053671;28;20544;-70
2024/01/01 14:14:13;;;;;;;16.90;3.87;;;;;;;;;;5052997;28;20684;-70
2024/01/01 14:16:39;;;;;;;12.87;3.23;;;;;;;;;;5035622;28;20196;-70
2024/01/01 14:19:05;;;;;;;14.17;4.93;;;;;;;;;;5054420;28;20637;-69
2024/01/01 14:21:31;;;;;;;12.60;3.77;;;;;;;;;;5053172;28;20182;-70
2024/01/01 14:23:57;;;;;;;14.17;4.07;;;;;;;;;;5035227;28;20297;-70
2024/01/01 14:26:23;;;;;;;16.40;4.63;;;;;;;;;;5053783;28;20225;-70
2024/01/01 14:28:49;;;;;;;11.57;4.20;;;;;;;;;;5055711;28;20181;-68
2024/01/01 14:31:15;;;;;;;16.37;4.63;;;;;;;;;;5056571;28;20253;-68